METAR Data
IDs: Format: Raw Decoded Include TAF

Data at: 0907 UTC 03 Aug 2021

KLHM 030855Z AUTO 00000KT 10SM CLR 19/08 A2995 RMK AO1
KLHM 030835Z AUTO 16005KT 10SM CLR 20/08 A2995 RMK AO1
KLHM 030815Z AUTO 00000KT 10SM CLR 20/07 A2995 RMK AO1
KLHM 030755Z AUTO 19003KT 10SM CLR 20/06 A2995 RMK AO1
KLHM 030735Z AUTO 00000KT 10SM CLR 21/07 A2996 RMK AO1
KLHM 030715Z AUTO 00000KT 10SM CLR 19/06 A2996 RMK AO1
KLHM 030655Z AUTO 00000KT 10SM CLR 20/07 A2995 RMK AO1
KLHM 030635Z AUTO 10004KT 10SM CLR 18/07 A2995 RMK AO1
KLHM 030615Z AUTO 09003KT 10SM CLR 19/06 A2995 RMK AO1
KLHM 030555Z AUTO 00000KT 10SM CLR 21/06 A2995 RMK AO1
KLHM 030535Z AUTO 16003KT 10SM CLR 22/05 A2995 RMK AO1
KLHM 030515Z AUTO 16005KT 10SM CLR 24/06 A2995 RMK AO1
KLHM 030455Z AUTO 19004KT 10SM CLR 25/06 A2995 RMK AO1
KLHM 030435Z AUTO 18004KT 10SM CLR 25/05 A2994 RMK AO1
KLHM 030415Z AUTO 19003KT 10SM CLR 25/06 A2994 RMK AO1
KLHM 030355Z AUTO 21006KT 10SM CLR 27/05 A2994 RMK AO1
KLHM 030335Z AUTO 00000KT 10SM CLR 28/03 A2995 RMK AO1
KLHM 030315Z AUTO 25003KT 10SM CLR 30/02 A2995 RMK AO1
KLHM 030255Z AUTO 00000KT 10SM CLR 32/00 A2994 RMK AO1
KLHM 030235Z AUTO 00000KT 10SM CLR 33/M01 A2994 RMK AO1
KLHM 030215Z AUTO 00000KT 10SM CLR 33/M03 A2995 RMK AO1
KLHM 030155Z AUTO 00000KT 10SM CLR 34/M02 A2995 RMK AO1
KLHM 030135Z AUTO 00000KT 10SM CLR 34/00 A2995 RMK AO1
KLHM 030115Z AUTO 23004KT 10SM CLR 35/00 A2996 RMK AO1
KLHM 030055Z AUTO 25004KT 10SM CLR 33/00 A2996 RMK AO1
KLHM 030035Z AUTO 26003KT 10SM CLR 33/00 A2996 RMK AO1
KLHM 030015Z AUTO 24004KT 10SM CLR 34/M01 A2997 RMK AO1
KLHM 022355Z AUTO 00000KT 10SM CLR 34/M01 A2997 RMK AO1
KLHM 022335Z AUTO 16003KT 10SM CLR 34/02 A2998 RMK AO1
KLHM 022315Z AUTO 25004KT 10SM CLR 33/03 A2998 RMK AO1
KLHM 022255Z AUTO 00000KT 10SM CLR 33/00 A2999 RMK AO1
KLHM 022235Z AUTO 21005KT 10SM CLR 33/03 A3000 RMK AO1
KLHM 022215Z AUTO 30003KT 10SM CLR 32/06 A3001 RMK AO1
KLHM 022155Z AUTO 26004KT 10SM CLR 32/06 A3001 RMK AO1
KLHM 022135Z AUTO 22006KT 10SM CLR 32/06 A3002 RMK AO1
KLHM 022115Z AUTO 27005KT 10SM CLR 31/06 A3002 RMK AO1
KLHM 022055Z AUTO 20004KT 10SM CLR 31/06 A3003 RMK AO1
KLHM 022035Z AUTO 23005KT 10SM CLR 30/04 A3004 RMK AO1
KLHM 022015Z AUTO 22004KT 10SM CLR 30/04 A3005 RMK AO1
KLHM 021955Z AUTO 22005KT 10SM CLR 30/05 A3005 RMK AO1
KLHM 021935Z AUTO 21007KT 10SM CLR 28/06 A3005 RMK AO1
KLHM 021915Z AUTO 23005KT 10SM CLR 27/05 A3006 RMK AO1
KLHM 021855Z AUTO 22008KT 10SM CLR 26/07 A3006 RMK AO1
KLHM 021835Z AUTO 22005KT 10SM CLR 26/07 A3007 RMK AO1
KLHM 021815Z AUTO 19005KT 10SM CLR 25/08 A3007 RMK AO1
KLHM 021755Z AUTO 18007KT 10SM CLR 25/08 A3007 RMK AO1
KLHM 021735Z AUTO 21008KT 10SM CLR 25/08 A3007 RMK AO1
KLHM 021715Z AUTO 18007KT 10SM CLR 23/09 A3007 RMK AO1
KLHM 021655Z AUTO 16009KT 10SM CLR 23/09 A3007 RMK AO1
KLHM 021635Z AUTO 16009KT 10SM CLR 22/10 A3008 RMK AO1
KLHM 021615Z AUTO 17008KT 10SM CLR 21/10 A3007 RMK AO1
KLHM 021555Z AUTO 16011KT 10SM CLR 21/10 A3008 RMK AO1
KLHM 021535Z AUTO 15011KT 10SM CLR 20/10 A3007 RMK AO1
KLHM 021515Z AUTO 15010KT 10SM CLR 20/10 A3007 RMK AO1
KLHM 021455Z AUTO 14010KT 10SM CLR 19/10 A3007 RMK AO1
KLHM 021435Z AUTO 14010G15KT 10SM CLR 18/10 A3006 RMK AO1
KLHM 021415Z AUTO 14010G14KT 10SM CLR 18/10 A3006 RMK AO1
KLHM 021355Z AUTO 14010KT 10SM CLR 17/10 A3006 RMK AO1
KLHM 021335Z AUTO 14009KT 10SM CLR 17/10 A3005 RMK AO1
KLHM 021315Z AUTO 14011KT 10SM CLR 17/10 A3004 RMK AO1
KLHM 021255Z AUTO 14010KT 10SM CLR 17/10 A3003 RMK AO1
KLHM 021235Z AUTO 14012G15KT 10SM CLR 17/10 A3002 RMK AO1
KLHM 021215Z AUTO 15011KT 10SM CLR 17/10 A3002 RMK AO1
KLHM 021155Z AUTO 15012G15KT 10SM CLR 17/10 A3002 RMK AO1
KLHM 021135Z AUTO 14011G15KT 10SM CLR 18/10 A3002 RMK AO1
KLHM 021115Z AUTO 15013G16KT 10SM CLR 18/10 A3002 RMK AO1
KLHM 021055Z AUTO 14010KT 10SM CLR 18/10 A3001 RMK AO1
KLHM 021035Z AUTO 15012G16KT 10SM CLR 18/10 A3001 RMK AO1
KLHM 021015Z AUTO 14011KT 10SM CLR 18/09 A3001 RMK AO1
KLHM 020955Z AUTO 15011KT 10SM CLR 19/09 A3001 RMK AO1
KLHM 020935Z AUTO 14009G14KT 10SM CLR 20/08 A3001 RMK AO1
KLHM 020915Z AUTO 14010KT 10SM CLR 20/08 A3001 RMK AO1
KLHM 020855Z AUTO 14010KT 10SM CLR 20/09 A3001 RMK AO1
KLHM 020835Z AUTO 15012KT 10SM CLR 20/09 A3001 RMK AO1
KLHM 020815Z AUTO 15010KT 10SM CLR 20/09 A3001 RMK AO1
KLHM 020755Z AUTO 15010KT 10SM CLR 20/10 A3001 RMK AO1
KLHM 020735Z AUTO 17009KT 10SM CLR 21/10 A3000 RMK AO1
KLHM 020715Z AUTO 16008KT 10SM CLR 21/10 A3000 RMK AO1
KLHM 020655Z AUTO 15007KT 10SM CLR 22/10 A3000 RMK AO1
KLHM 020635Z AUTO 15008KT 10SM CLR 22/10 A2999 RMK AO1
KLHM 020615Z AUTO 16009KT 10SM CLR 23/10 A2999 RMK AO1
KLHM 020555Z AUTO 16009KT 10SM CLR 23/10 A2999 RMK AO1
KLHM 020535Z AUTO 16011KT 10SM CLR 25/10 A2998 RMK AO1
KLHM 020515Z AUTO 17008KT 10SM CLR 25/10 A2998 RMK AO1
KLHM 020455Z AUTO 17009KT 10SM CLR 26/09 A2997 RMK AO1
KLHM 020435Z AUTO 17009KT 10SM CLR 26/08 A2996 RMK AO1
KLHM 020415Z AUTO 16008KT 10SM CLR 27/08 A2995 RMK AO1
KLHM 020355Z AUTO 17007KT 10SM CLR 28/07 A2995 RMK AO1
KLHM 020335Z AUTO 17006KT 10SM CLR 28/08 A2994 RMK AO1
KLHM 020315Z AUTO 18007KT 10SM CLR 30/08 A2993 RMK AO1
KLHM 020255Z AUTO 19006KT 10SM CLR 30/08 A2993 RMK AO1
KLHM 020235Z AUTO 20006KT 10SM CLR 32/07 A2992 RMK AO1
KLHM 020215Z AUTO 21009KT 10SM CLR 33/07 A2991 RMK AO1
KLHM 020155Z AUTO 22008KT 10SM CLR 35/07 A2991 RMK AO1
KLHM 020135Z AUTO 21009KT 10SM CLR 35/08 A2991 RMK AO1
KLHM 020115Z AUTO 22006KT 10SM CLR 36/08 A2991 RMK AO1
KLHM 020055Z AUTO 21006KT 10SM CLR 36/10 A2991 RMK AO1
KLHM 020035Z AUTO 23007KT 10SM CLR 36/11 A2992 RMK AO1
KLHM 020015Z AUTO 00000KT 10SM CLR 36/11 A2991 RMK AO1
KLHM 012355Z AUTO 24005KT 10SM CLR 36/10 A2991 RMK AO1
KLHM 012335Z AUTO 25006KT 10SM CLR 36/10 A2992 RMK AO1
KLHM 012315Z AUTO 24006KT 10SM CLR 36/11 A2993 RMK AO1
KLHM 012255Z AUTO 25008KT 10SM CLR 35/12 A2993 RMK AO1
KLHM 012235Z AUTO 22005KT 10SM CLR 35/12 A2993 RMK AO1
KLHM 012215Z AUTO 25004KT 10SM CLR 35/12 A2994 RMK AO1
KLHM 012155Z AUTO 25006KT 10SM CLR 35/11 A2995 RMK AO1
KLHM 012135Z AUTO 27003KT 10SM CLR 34/12 A2995 RMK AO1
KLHM 012115Z AUTO 21005KT 10SM CLR 33/11 A2996 RMK AO1